Time;durP1;ratioP1;P1;durP2;ratioP2;P2;SDS_P1;SDS_P2;PMS_P1;PMS_P2;Temp;Humidity;BMP_temperature;BMP_pressure;BME280_temperature;BME280_humidity;BME280_pressure;Samples;Min_cycle;Max_cycle;Signal;HPM_P1;HPM_P2
2024/01/24 00:01:21;;;;;;;4.57;2.42;;;;;;;12.28;100.00;101091.00;5051384;28;20052;-73
2024/01/24 00:03:47;;;;;;;4.15;2.55;;;;;;;12.31;100.00;101120.88;5033465;28;20017;-75
2024/01/24 00:06:12;;;;;;;3.85;2.53;;;;;;;12.28;100.00;101091.84;5033492;28;20032;-74
2024/01/24 00:08:37;;;;;;;4.60;2.70;;;;;;;12.29;100.00;101120.28;5051329;28;20028;-74
2024/01/24 00:11:03;;;;;;;4.03;1.95;;;;;;;12.38;100.00;101108.25;5051188;28;20037;-73
2024/01/24 00:13:28;;;;;;;3.17;2.05;;;;;;;12.41;100.00;101137.31;5051374;28;20458;-75
2024/01/24 00:15:54;;;;;;;3.75;2.60;;;;;;;12.31;100.00;101138.84;5051189;28;20096;-72
2024/01/24 00:18:19;;;;;;;4.15;2.10;;;;;;;12.35;100.00;101142.72;5033202;28;20021;-73
2024/01/24 00:20:44;;;;;;;6.70;2.35;;;;;;;12.41;100.00;101161.44;5051146;28;20118;-74
2024/01/24 00:23:10;;;;;;;3.97;2.20;;;;;;;12.43;100.00;101149.66;5050965;28;20052;-74
2024/01/24 00:25:36;;;;;;;3.47;1.90;;;;;;;12.46;100.00;101155.44;5042930;28;20037;-74
2024/01/24 00:28:02;;;;;;;2.85;2.10;;;;;;;12.45;100.00;101112.75;5033315;28;20029;-73
2024/01/24 00:30:28;;;;;;;3.13;1.92;;;;;;;12.51;100.00;101103.81;5050821;28;20468;-74
2024/01/24 00:32:53;;;;;;;3.38;2.00;;;;;;;12.49;100.00;101122.00;5050885;28;20021;-72
2024/01/24 00:35:18;;;;;;;2.85;2.15;;;;;;;12.59;100.00;101101.66;5050887;28;20032;-73
2024/01/24 00:37:45;;;;;;;4.68;2.35;;;;;;;12.50;100.00;101105.69;5050972;28;20130;-74
2024/01/24 00:40:10;;;;;;;2.95;1.65;;;;;;;12.54;100.00;101077.38;5050980;28;20592;-72
2024/01/24 00:42:38;;;;;;;2.22;1.70;;;;;;;12.55;100.00;101105.03;5033098;28;20108;-73
2024/01/24 00:45:03;;;;;;;3.83;2.00;;;;;;;12.62;100.00;101082.44;5050823;28;20036;-73
2024/01/24 00:47:29;;;;;;;2.60;1.88;;;;;;;12.63;100.00;101108.22;5032773;28;20036;-73
2024/01/24 00:49:54;;;;;;;4.03;2.08;;;;;;;12.58;100.00;101102.72;5050653;28;20489;-73
2024/01/24 00:52:20;;;;;;;3.00;1.80;;;;;;;12.57;100.00;101090.34;5050647;28;20039;-74
2024/01/24 00:54:45;;;;;;;4.05;2.00;;;;;;;12.54;100.00;101111.44;5050632;28;20035;-74
2024/01/24 00:57:11;;;;;;;3.72;2.22;;;;;;;12.43;100.00;101121.00;5050395;28;20371;-73
2024/01/24 00:59:36;;;;;;;4.15;2.03;;;;;;;12.36;100.00;101104.97;5032663;28;20040;-73
2024/01/24 01:02:02;;;;;;;3.35;1.95;;;;;;;12.12;100.00;101103.09;5051740;28;20025;-74
2024/01/24 01:04:28;;;;;;;2.75;2.10;;;;;;;12.01;100.00;101109.16;5053934;28;20370;-74
2024/01/24 01:06:53;;;;;;;7.70;2.50;;;;;;;11.96;100.00;101087.56;5036041;28;20075;-74
2024/01/24 01:09:18;;;;;;;2.90;2.10;;;;;;;11.87;100.00;101075.47;5053950;28;20025;-74
2024/01/24 01:11:44;;;;;;;3.03;2.15;;;;;;;11.81;100.00;101062.91;5035913;28;20029;-73
2024/01/24 01:14:09;;;;;;;3.38;2.10;;;;;;;11.82;100.00;101076.09;5036004;28;20078;-73
2024/01/24 01:16:34;;;;;;;2.67;2.42;;;;;;;11.79;100.00;101082.69;5053913;28;20032;-73
2024/01/24 01:19:00;;;;;;;3.05;2.20;;;;;;;11.79;100.00;101071.97;5036001;28;20035;-73
2024/01/24 01:21:25;;;;;;;5.07;2.35;;;;;;;11.77;100.00;101108.84;5053915;28;20033;-72
2024/01/24 01:23:51;;;;;;;3.15;2.13;;;;;;;11.78;100.00;101091.78;5035891;28;20079;-73
2024/01/24 01:26:16;;;;;;;2.67;1.92;;;;;;;11.79;100.00;101087.25;5053741;28;20028;-74
2024/01/24 01:28:41;;;;;;;2.45;2.00;;;;;;;11.74;100.00;101138.75;5053823;28;20032;-73
2024/01/24 01:31:07;;;;;;;3.30;2.38;;;;;;;11.76;100.00;101072.38;5053692;28;20131;-73
2024/01/24 01:33:32;;;;;;;3.70;2.30;;;;;;;11.78;100.00;101072.19;5035853;28;20025;-73
2024/01/24 01:35:57;;;;;;;3.88;2.15;;;;;;;11.70;100.00;101067.91;5035764;28;20374;-73
2024/01/24 01:38:23;;;;;;;3.45;2.00;;;;;;;11.67;100.00;101078.22;5053625;28;20059;-73
2024/01/24 01:40:48;;;;;;;4.30;2.28;;;;;;;11.72;100.00;101097.97;5053669;28;20095;-73
2024/01/24 01:43:15;;;;;;;2.17;1.85;;;;;;;11.71;100.00;101082.13;5053623;28;20017;-73
2024/01/24 01:45:41;;;;;;;2.03;1.85;;;;;;;11.66;100.00;101077.41;5053833;28;20037;-73
2024/01/24 01:48:08;;;;;;;5.32;3.65;;;;;;;11.66;100.00;101093.47;5053585;28;20553;-74
2024/01/24 01:50:34;;;;;;;2.97;2.13;;;;;;;11.61;100.00;101105.88;5053436;28;20071;-72
2024/01/24 01:53:01;;;;;;;2.70;2.10;;;;;;;11.66;100.00;101093.47;5053498;28;20424;-74
2024/01/24 01:55:26;;;;;;;3.00;1.98;;;;;;;11.51;100.00;101094.78;5053381;28;20025;-73
2024/01/24 01:57:52;;;;;;;3.22;2.50;;;;;;;11.37;100.00;101128.84;5053287;28;20393;-73
2024/01/24 02:00:21;;;;;;;3.65;2.30;;;;;;;11.21;100.00;101067.75;5053395;28;20102;-75
2024/01/24 02:02:47;;;;;;;2.60;2.40;;;;;;;11.10;100.00;101088.78;5035389;28;20033;-75
2024/01/24 02:05:16;;;;;;;2.55;2.35;;;;;;;11.11;100.00;101086.94;5053224;28;20067;-75
2024/01/24 02:07:45;;;;;;;5.20;2.20;;;;;;;11.05;100.00;101047.66;5035305;28;20120;-74
2024/01/24 02:10:11;;;;;;;2.85;2.13;;;;;;;11.06;100.00;101063.50;5053176;28;20400;-75
2024/01/24 02:12:37;;;;;;;3.05;2.28;;;;;;;11.04;100.00;101049.50;5052817;28;20489;-76
2024/01/24 02:15:02;;;;;;;2.15;1.95;;;;;;;11.02;100.00;101054.25;5052397;28;20106;-77
2024/01/24 02:17:28;;;;;;;2.42;2.22;;;;;;;10.99;100.00;101051.19;5053219;28;20382;-75
2024/01/24 02:19:53;;;;;;;1.77;1.67;;;;;;;11.03;100.00;101071.94;5053094;28;20029;-75
2024/01/24 02:22:18;;;;;;;3.35;1.90;;;;;;;10.96;100.00;101054.25;5053024;28;20033;-77
2024/01/24 02:24:44;;;;;;;1.90;1.80;;;;;;;10.96;100.00;101062.28;5053395;28;20100;-77
2024/01/24 02:27:09;;;;;;;1.83;1.67;;;;;;;10.93;100.00;101031.41;5053119;28;20031;-77
2024/01/24 02:29:34;;;;;;;1.90;1.80;;;;;;;10.96;100.00;101055.06;5052739;28;20035;-77
2024/01/24 02:32:00;;;;;;;2.35;1.90;;;;;;;10.88;100.00;101054.47;5053035;28;20551;-78
2024/01/24 02:34:25;;;;;;;2.30;1.67;;;;;;;10.89;100.00;101059.63;5035116;28;20036;-79
2024/01/24 02:36:50;;;;;;;1.90;1.80;;;;;;;10.92;100.00;101053.84;5052879;28;20033;-81
2024/01/24 02:39:17;;;;;;;1.67;1.58;;;;;;;10.90;100.00;101020.31;5035088;28;20049;-79
2024/01/24 02:41:43;;;;;;;2.20;2.00;;;;;;;10.92;100.00;101061.06;5052756;28;20025;-82
2024/01/24 02:44:09;;;;;;;2.20;1.95;;;;;;;10.90;100.00;101077.31;5034896;28;20035;-80
2024/01/24 02:46:35;;;;;;;2.58;2.00;;;;;;;10.89;100.00;101080.22;5034897;28;20053;-81
2024/01/24 02:49:00;;;;;;;2.05;1.95;;;;;;;10.96;100.00;101067.63;5052727;28;20416;-79
2024/01/24 02:51:26;;;;;;;2.50;2.08;;;;;;;10.91;100.00;101081.63;5052813;28;20532;-79
2024/01/24 02:53:52;;;;;;;2.38;2.05;;;;;;;10.97;100.00;101067.41;5052755;28;20041;-78
2024/01/24 02:56:17;;;;;;;2.00;1.90;;;;;;;10.92;100.00;101077.09;5052446;28;20087;-78
2024/01/24 02:58:42;;;;;;;2.40;2.20;;;;;;;11.00;100.00;101064.34;5052808;28;20462;-78
2024/01/24 03:01:08;;;;;;;2.08;1.98;;;;;;;10.92;100.00;101045.81;5052425;28;20143;-78
2024/01/24 03:03:33;;;;;;;2.08;1.98;;;;;;;10.98;100.00;101041.47;5052624;28;20465;-79
2024/01/24 03:05:58;;;;;;;2.17;1.98;;;;;;;11.02;100.00;101056.91;5052437;28;20062;-80
2024/01/24 03:08:24;;;;;;;2.22;2.03;;;;;;;11.06;100.00;101050.09;5052342;28;20021;-79
2024/01/24 03:10:49;;;;;;;2.67;2.10;;;;;;;11.05;100.00;101044.97;5052671;28;20393;-80
2024/01/24 03:13:14;;;;;;;2.10;2.00;;;;;;;11.01;100.00;101063.31;5052713;28;20036;-79
2024/01/24 03:15:40;;;;;;;2.50;2.30;;;;;;;11.08;100.00;101015.94;5035302;28;20382;-77
2024/01/24 03:18:06;;;;;;;2.85;2.42;;;;;;;11.11;100.00;101030.72;5034740;28;20106;-78
2024/01/24 03:20:32;;;;;;;2.50;2.30;;;;;;;11.10;100.00;101061.22;5052286;28;20029;-78
2024/01/24 03:22:57;;;;;;;2.92;2.50;;;;;;;11.08;100.00;101053.38;5052761;28;20029;-77
2024/01/24 03:25:22;;;;;;;3.65;2.90;;;;;;;11.01;100.00;101071.34;5052069;28;20473;-78
2024/01/24 03:27:48;;;;;;;2.70;2.28;;;;;;;11.05;100.00;101095.81;5052562;28;20472;-77
2024/01/24 03:30:13;;;;;;;3.50;2.38;;;;;;;11.20;100.00;101108.94;5052034;28;20029;-79
2024/01/24 03:32:39;;;;;;;2.60;2.40;;;;;;;11.18;100.00;101069.00;5052048;28;20469;-78
2024/01/24 03:35:06;;;;;;;2.80;2.20;;;;;;;11.13;100.00;101141.06;5051867;28;20080;-77
2024/01/24 03:37:32;;;;;;;3.60;2.20;;;;;;;11.19;100.00;101116.13;5051796;28;20037;-76
2024/01/24 03:39:57;;;;;;;3.10;2.17;;;;;;;11.09;100.00;101139.84;5052401;28;20033;-77
2024/01/24 03:42:22;;;;;;;3.53;2.60;;;;;;;11.18;100.00;101155.47;5034003;28;20025;-78
2024/01/24 03:44:48;;;;;;;3.97;2.30;;;;;;;11.24;100.00;101137.72;5034129;28;20106;-75
2024/01/24 03:47:13;;;;;;;2.85;2.10;;;;;;;11.30;100.00;101114.66;5051987;28;20047;-76
2024/01/24 03:49:39;;;;;;;3.53;2.15;;;;;;;11.52;100.00;101169.56;5051705;28;20025;-77
2024/01/24 03:52:04;;;;;;;4.78;2.30;;;;;;;11.48;100.00;101171.84;5033783;28;20028;-76
2024/01/24 03:54:30;;;;;;;6.53;2.20;;;;;;;11.62;100.00;101156.56;5033964;28;20025;-76
2024/01/24 03:56:55;;;;;;;7.03;2.20;;;;;;;11.70;100.00;101102.72;5052348;28;20547;-75
2024/01/24 03:59:20;;;;;;;8.02;2.70;;;;;;;11.74;100.00;101180.81;5033724;28;20397;-76
2024/01/24 04:01:46;;;;;;;6.32;2.10;;;;;;;11.67;100.00;101175.47;5033902;28;20473;-76
2024/01/24 04:04:12;;;;;;;6.88;2.58;;;;;;;11.69;100.00;101177.94;5051851;28;20029;-76
2024/01/24 04:06:37;;;;;;;7.60;2.25;;;;;;;11.82;100.00;101135.03;5051507;28;20028;-77
2024/01/24 04:09:03;;;;;;;8.70;2.47;;;;;;;11.76;100.00;101159.97;5033509;28;20028;-75
2024/01/24 04:11:29;;;;;;;10.05;2.67;;;;;;;11.82;100.00;101140.38;5033701;28;20431;-75
2024/01/24 04:13:54;;;;;;;8.65;3.42;;;;;;;11.79;100.00;101146.19;5051442;28;20155;-74
2024/01/24 04:16:20;;;;;;;8.95;2.63;;;;;;;11.74;100.00;101135.25;5051409;28;20469;-74
2024/01/24 04:18:46;;;;;;;8.25;2.40;;;;;;;11.68;100.00;101161.06;5033472;28;20366;-75
2024/01/24 04:21:11;;;;;;;7.90;2.85;;;;;;;11.65;100.00;101171.38;5051283;28;20044;-75
2024/01/24 04:23:37;;;;;;;9.07;3.17;;;;;;;11.65;100.00;101149.94;5051113;28;20033;-75
2024/01/24 04:26:04;;;;;;;9.48;3.13;;;;;;;11.52;100.00;101180.25;5051198;28;20041;-76
2024/01/24 04:28:30;;;;;;;9.27;3.30;;;;;;;11.56;100.00;101145.84;5051079;28;20021;-74
2024/01/24 04:30:55;;;;;;;13.57;3.17;;;;;;;11.56;100.00;101210.13;5051110;28;20037;-75
2024/01/24 04:33:21;;;;;;;11.95;3.15;;;;;;;11.55;100.00;101214.66;5033252;28;20021;-75
2024/01/24 04:35:46;;;;;;;8.73;3.05;;;;;;;11.58;100.00;101200.88;5051012;28;20535;-74
2024/01/24 04:38:11;;;;;;;13.20;4.03;;;;;;;11.55;100.00;101219.19;5036108;28;20029;-74
2024/01/24 04:40:36;;;;;;;17.48;3.80;;;;;;;11.63;100.00;101221.66;5054468;28;20119;-74
2024/01/24 04:43:02;;;;;;;14.25;3.85;;;;;;;11.48;100.00;101187.91;5054695;28;20116;-74
2024/01/24 04:45:27;;;;;;;13.43;4.50;;;;;;;11.46;100.00;101240.03;5036602;28;20029;-74
2024/01/24 04:47:52;;;;;;;12.02;3.60;;;;;;;11.47;100.00;101180.09;5054495;28;20032;-73
2024/01/24 04:50:18;;;;;;;11.98;4.55;;;;;;;11.39;100.00;101231.19;5036500;28;20362;-73
2024/01/24 04:52:43;;;;;;;15.13;4.60;;;;;;;11.35;100.00;101233.47;5036570;28;20029;-74
2024/01/24 04:55:12;;;;;;;11.65;3.53;;;;;;;11.36;100.00;101219.06;5036590;28;20025;-75
2024/01/24 04:57:38;;;;;;;15.65;4.07;;;;;;;11.36;100.00;101208.34;5028540;28;20037;-74
2024/01/24 05:00:08;;;;;;;16.00;4.57;;;;;;;11.30;100.00;101206.50;5054328;28;20029;-73
2024/01/24 05:02:33;;;;;;;13.75;4.45;;;;;;;11.25;100.00;101165.31;5036526;28;20031;-73
2024/01/24 05:04:59;;;;;;;14.27;4.90;;;;;;;11.35;100.00;101221.94;5054147;28;20219;-72
2024/01/24 05:07:24;;;;;;;24.20;4.55;;;;;;;11.32;100.00;101212.47;5053943;28;20488;-73
2024/01/24 05:09:49;;;;;;;14.57;4.90;;;;;;;11.24;100.00;101227.91;5054008;28;20028;-75
2024/01/24 05:12:15;;;;;;;18.27;5.32;;;;;;;11.21;100.00;101239.03;5054283;28;20397;-74
2024/01/24 05:14:41;;;;;;;13.65;4.43;;;;;;;11.26;100.00;101242.75;5054152;28;20021;-74
2024/01/24 05:17:06;;;;;;;17.33;5.13;;;;;;;11.32;100.00;101241.09;5036091;28;20086;-76
2024/01/24 05:19:32;;;;;;;15.35;5.43;;;;;;;11.22;100.00;101267.47;5036023;28;20500;-74
2024/01/24 05:21:57;;;;;;;18.42;5.82;;;;;;;11.28;100.00;101239.88;5053897;28;20021;-73
2024/01/24 05:24:23;;;;;;;17.00;4.50;;;;;;;11.30;100.00;101275.28;5054296;28;20354;-73
2024/01/24 05:26:48;;;;;;;17.95;5.82;;;;;;;11.40;100.00;101273.00;5053709;28;20556;-73
2024/01/24 05:29:13;;;;;;;21.27;5.65;;;;;;;11.33;100.00;101274.88;5053955;28;20033;-73
2024/01/24 05:31:39;;;;;;;18.45;5.18;;;;;;;11.32;100.00;101289.31;5035697;28;20393;-73
2024/01/24 05:34:04;;;;;;;20.70;4.63;;;;;;;11.29;100.00;101284.34;5053684;28;20036;-75
2024/01/24 05:36:30;;;;;;;25.52;5.60;;;;;;;11.28;100.00;101288.06;5053551;28;20033;-74
2024/01/24 05:38:55;;;;;;;13.32;4.93;;;;;;;11.20;100.00;101270.34;5053557;28;20032;-73
2024/01/24 05:41:20;;;;;;;17.35;5.57;;;;;;;11.20;100.00;101297.13;5053807;28;20025;-74
2024/01/24 05:43:46;;;;;;;23.25;6.40;;;;;;;11.06;100.00;101292.81;5035628;28;20037;-74
2024/01/24 05:46:11;;;;;;;16.48;5.50;;;;;;;11.18;100.00;101288.47;5053488;28;20040;-74
2024/01/24 05:48:36;;;;;;;20.67;5.97;;;;;;;11.19;100.00;101290.13;5053189;28;20029;-73
2024/01/24 05:51:02;;;;;;;16.58;5.70;;;;;;;11.18;100.00;101294.66;5053469;28;20103;-73
2024/01/24 05:53:27;;;;;;;19.55;5.07;;;;;;;11.09;100.00;101268.31;5053437;28;20025;-76
2024/01/24 05:55:53;;;;;;;21.70;5.13;;;;;;;11.10;100.00;101304.75;5035417;28;20078;-75
2024/01/24 05:58:18;;;;;;;22.83;5.53;;;;;;;11.05;100.00;101277.78;5053412;28;20033;-73
2024/01/24 06:00:44;;;;;;;25.88;6.13;;;;;;;11.07;100.00;101257.81;5053371;28;20029;-72
2024/01/24 06:03:09;;;;;;;19.83;5.60;;;;;;;11.02;100.00;101256.78;5053273;28;20078;-73
2024/01/24 06:05:34;;;;;;;16.83;4.28;;;;;;;11.05;100.00;101259.88;5053320;28;20028;-74
2024/01/24 06:08:00;;;;;;;25.65;5.90;;;;;;;11.10;100.00;101312.78;5035184;28;20132;-75
2024/01/24 06:10:25;;;;;;;27.00;5.70;;;;;;;11.03;100.00;101323.47;5053280;28;20033;-73
2024/01/24 06:12:50;;;;;;;17.55;4.80;;;;;;;10.94;100.00;101339.91;5035298;28;20029;-74
2024/01/24 06:15:18;;;;;;;28.40;6.13;;;;;;;11.09;100.00;101337.88;5053184;28;20060;-72
2024/01/24 06:17:43;;;;;;;19.73;4.80;;;;;;;10.97;100.00;101339.50;5034994;28;20135;-73
2024/01/24 06:20:09;;;;;;;24.25;6.18;;;;;;;10.94;100.00;101362.16;5052901;28;20100;-72
2024/01/24 06:22:35;;;;;;;22.73;5.68;;;;;;;10.98;100.00;101357.22;5053117;28;20044;-73
2024/01/24 06:25:02;;;;;;;29.25;6.07;;;;;;;10.98;100.00;101363.38;5035224;28;20033;-72
2024/01/24 06:27:28;;;;;;;21.45;4.82;;;;;;;10.96;100.00;101351.25;5052994;28;20389;-72
2024/01/24 06:29:54;;;;;;;23.77;7.00;;;;;;;10.99;100.00;101359.72;5052991;28;20021;-73
2024/01/24 06:32:21;;;;;;;25.38;5.78;;;;;;;10.84;100.00;101391.16;5053266;28;20055;-72
2024/01/24 06:34:46;;;;;;;21.15;6.47;;;;;;;10.96;100.00;101375.31;5052899;28;20049;-72
2024/01/24 06:37:11;;;;;;;27.73;6.38;;;;;;;10.74;100.00;101399.56;5034845;28;20128;-73
2024/01/24 06:39:37;;;;;;;23.52;7.25;;;;;;;10.80;100.00;101425.50;5052703;28;20025;-73
2024/01/24 06:42:02;;;;;;;21.98;7.07;;;;;;;10.86;100.00;101438.09;5052633;28;20535;-73
2024/01/24 06:44:27;;;;;;;22.30;6.22;;;;;;;10.74;100.00;101446.91;5052571;28;20021;-74
2024/01/24 06:46:53;;;;;;;22.88;6.80;;;;;;;10.84;100.00;101455.38;5052706;28;20055;-74
2024/01/24 06:49:19;;;;;;;27.02;6.85;;;;;;;10.73;100.00;101456.78;5052671;28;20496;-74
2024/01/24 06:51:45;;;;;;;25.30;6.43;;;;;;;10.82;100.00;101458.25;5034657;28;20481;-73
2024/01/24 06:54:12;;;;;;;30.08;6.07;;;;;;;10.74;100.00;101498.53;5034572;28;20039;-74
2024/01/24 06:56:38;;;;;;;25.17;7.00;;;;;;;10.73;100.00;101482.69;5052260;28;20120;-73
2024/01/24 06:59:03;;;;;;;24.23;6.57;;;;;;;10.68;100.00;101472.56;5052249;28;20151;-73
2024/01/24 07:01:28;;;;;;;21.15;5.82;;;;;;;10.57;100.00;101485.69;5034299;28;20029;-74
2024/01/24 07:03:54;;;;;;;28.92;6.20;;;;;;;10.44;100.00;101475.78;5052142;28;20040;-73
2024/01/24 07:06:19;;;;;;;25.52;8.25;;;;;;;10.50;100.00;101469.63;5034331;28;20025;-74
2024/01/24 07:08:45;;;;;;;29.77;6.55;;;;;;;10.42;100.00;101443.88;5052219;28;20498;-73
2024/01/24 07:11:11;;;;;;;32.83;7.30;;;;;;;10.30;100.00;101455.31;5034349;28;20469;-73
2024/01/24 07:13:37;;;;;;;31.13;6.05;;;;;;;10.20;100.00;101477.03;5052070;28;20118;-75
2024/01/24 07:16:04;;;;;;;23.70;6.70;;;;;;;10.16;100.00;101478.44;5034155;28;20498;-73
2024/01/24 07:18:31;;;;;;;29.00;8.07;;;;;;;10.13;100.00;101487.69;5052035;28;20481;-74
2024/01/24 07:20:57;;;;;;;27.17;7.60;;;;;;;10.10;100.00;101447.13;5034018;28;20037;-74
2024/01/24 07:23:22;;;;;;;23.60;6.28;;;;;;;10.08;100.00;101499.94;5051888;28;20040;-74
2024/01/24 07:25:48;;;;;;;26.98;7.40;;;;;;;9.91;100.00;101499.44;5052011;28;20424;-74
2024/01/24 07:28:14;;;;;;;27.23;7.28;;;;;;;9.97;100.00;101512.00;5051975;28;20043;-74
2024/01/24 07:30:39;;;;;;;23.02;6.07;;;;;;;9.94;100.00;101488.34;5051999;28;20055;-77
2024/01/24 07:33:05;;;;;;;27.00;6.90;;;;;;;9.96;100.00;101501.50;5034196;28;20033;-75
2024/01/24 07:35:31;;;;;;;31.33;8.23;;;;;;;9.94;100.00;101529.25;5033829;28;20029;-75
2024/01/24 07:37:56;;;;;;;31.55;7.10;;;;;;;9.91;100.00;101550.19;5051717;28;20078;-75
2024/01/24 07:40:22;;;;;;;32.30;8.15;;;;;;;9.81;100.00;101530.97;5051856;28;20041;-75
2024/01/24 07:42:48;;;;;;;23.35;7.00;;;;;;;9.90;100.00;101511.13;5051804;28;20065;-74
2024/01/24 07:45:14;;;;;;;25.70;6.35;;;;;;;9.88;100.00;101515.84;5051712;28;20025;-75
2024/01/24 07:47:39;;;;;;;32.63;7.72;;;;;;;9.81;100.00;101544.31;5051779;28;20087;-74
2024/01/24 07:50:05;;;;;;;23.38;5.95;;;;;;;9.74;100.00;101532.75;5033747;28;20025;-73
2024/01/24 07:52:30;;;;;;;28.30;6.78;;;;;;;9.76;100.00;101549.41;5033732;28;20098;-73
2024/01/24 07:54:56;;;;;;;22.08;6.20;;;;;;;9.87;100.00;101579.13;5051598;28;20029;-73
2024/01/24 07:57:21;;;;;;;25.05;6.47;;;;;;;9.80;100.00;101586.22;5051628;28;20037;-72
2024/01/24 07:59:46;;;;;;;25.67;6.53;;;;;;;9.78;100.00;101579.41;5051658;28;20047;-73
2024/01/24 08:02:13;;;;;;;22.95;5.82;;;;;;;9.80;100.00;101577.38;5051513;28;20029;-74
2024/01/24 08:04:39;;;;;;;25.38;5.90;;;;;;;9.76;100.00;101566.25;5051574;28;20029;-75
2024/01/24 08:07:04;;;;;;;21.73;6.07;;;;;;;9.76;100.00;101570.78;5033617;28;20410;-75
2024/01/24 08:09:29;;;;;;;30.65;7.00;;;;;;;9.80;100.00;101559.50;5033549;28;20057;-74
2024/01/24 08:11:55;;;;;;;31.88;8.10;;;;;;;9.75;100.00;101561.09;5051335;28;20108;-76
2024/01/24 08:14:20;;;;;;;22.58;6.95;;;;;;;9.81;100.00;101584.38;5051332;28;20021;-75
2024/01/24 08:17:00;;;;;;;19.30;6.82;;;;;;;10.04;100.00;101584.19;5051237;28;20087;-73
2024/01/24 08:19:25;;;;;;;22.05;6.60;;;;;;;10.04;100.00;101605.56;5033314;28;20025;-75
2024/01/24 08:21:51;;;;;;;29.33;6.75;;;;;;;9.99;100.00;101624.03;5051121;28;20032;-73
2024/01/24 08:24:17;;;;;;;25.55;6.13;;;;;;;10.02;100.00;101608.44;5051231;28;20487;-74
2024/01/24 08:26:42;;;;;;;23.33;6.82;;;;;;;10.10;100.00;101623.50;5033360;28;20033;-73
2024/01/24 08:29:07;;;;;;;31.27;7.10;;;;;;;10.22;100.00;101609.47;5051439;28;20035;-75
2024/01/24 08:31:32;;;;;;;23.80;6.25;;;;;;;10.24;100.00;101618.13;5051208;28;20520;-73
2024/01/24 08:33:58;;;;;;;28.45;6.28;;;;;;;10.33;100.00;101609.97;5051109;28;20079;-73
2024/01/24 08:36:23;;;;;;;24.65;7.50;;;;;;;10.34;100.00;101616.97;5051029;28;20072;-73
2024/01/24 08:38:49;;;;;;;27.85;7.65;;;;;;;10.32;100.00;101621.66;5051147;28;20025;-73
2024/01/24 08:41:14;;;;;;;27.38;6.28;;;;;;;10.20;100.00;101654.28;5051344;28;20033;-75
2024/01/24 08:43:39;;;;;;;30.08;7.75;;;;;;;10.36;100.00;101652.34;5051154;28;20454;-74
2024/01/24 08:46:05;;;;;;;23.08;6.32;;;;;;;10.24;100.00;101638.69;5033272;28;20081;-75
2024/01/24 08:48:30;;;;;;;23.40;5.85;;;;;;;10.32;100.00;101649.22;5051206;28;20066;-76
2024/01/24 08:50:56;;;;;;;29.63;6.45;;;;;;;10.41;100.00;101664.13;5051048;28;20029;-75
2024/01/24 08:53:21;;;;;;;27.08;6.28;;;;;;;10.58;100.00;101678.03;5051028;28;20032;-74
2024/01/24 08:55:47;;;;;;;27.17;5.78;;;;;;;10.56;100.00;101613.22;5033053;28;20397;-75
2024/01/24 08:58:12;;;;;;;20.70;5.88;;;;;;;10.49;100.00;101653.28;5050895;28;20064;-74
2024/01/24 09:00:38;;;;;;;26.33;7.22;;;;;;;10.37;100.00;101673.53;5050817;28;20025;-74
2024/01/24 09:03:03;;;;;;;24.58;7.15;;;;;;;10.44;100.00;101668.28;5050745;28;20025;-73
2024/01/24 09:05:29;;;;;;;24.85;6.90;;;;;;;10.45;100.00;101681.44;5050658;28;20032;-73
2024/01/24 09:07:54;;;;;;;26.33;6.63;;;;;;;10.37;100.00;101702.13;5050754;28;20111;-71
2024/01/24 09:10:19;;;;;;;24.00;7.28;;;;;;;10.37;100.00;101712.81;5050587;28;20043;-74
2024/01/24 09:12:45;;;;;;;24.20;6.68;;;;;;;10.43;100.00;101725.44;5050637;28;20477;-74
2024/01/24 09:15:10;;;;;;;21.30;5.20;;;;;;;10.35;100.00;101702.31;5032800;28;20033;-74
2024/01/24 09:17:35;;;;;;;28.95;7.30;;;;;;;10.34;100.00;101689.13;5050560;28;20197;-74
2024/01/24 09:20:02;;;;;;;29.88;7.97;;;;;;;10.31;100.00;101705.56;5032658;28;20033;-76
2024/01/24 09:22:27;;;;;;;26.85;7.07;;;;;;;10.45;100.00;101694.81;5051015;28;20028;-76
2024/01/24 09:24:53;;;;;;;26.63;7.20;;;;;;;10.68;100.00;101715.97;5053994;28;20033;-74
2024/01/24 09:27:18;;;;;;;21.88;5.32;;;;;;;10.76;100.00;101734.56;5054083;28;20033;-74
2024/01/24 09:29:43;;;;;;;25.92;6.63;;;;;;;10.77;100.00;101730.88;5035967;28;20431;-75
2024/01/24 09:32:09;;;;;;;31.98;7.38;;;;;;;10.74;100.00;101757.19;5036017;28;20082;-75
2024/01/24 09:34:34;;;;;;;26.85;7.13;;;;;;;10.68;100.00;101749.91;5053868;28;20082;-75
2024/01/24 09:37:00;;;;;;;23.42;5.97;;;;;;;10.65;100.00;101751.13;5053769;28;20159;-75
2024/01/24 09:39:26;;;;;;;34.70;6.32;;;;;;;10.75;100.00;101778.41;5053737;28;20044;-77
2024/01/24 09:41:51;;;;;;;30.20;7.70;;;;;;;10.85;100.00;101773.53;5053787;28;20470;-77
2024/01/24 09:44:17;;;;;;;26.23;6.50;;;;;;;10.98;100.00;101769.31;5035750;28;20033;-75
2024/01/24 09:46:43;;;;;;;23.80;5.70;;;;;;;11.00;100.00;101786.03;5035804;28;20484;-76
2024/01/24 09:49:10;;;;;;;31.52;6.95;;;;;;;11.09;100.00;101758.09;5053710;28;20033;-76
2024/01/24 09:51:35;;;;;;;29.10;6.85;;;;;;;11.09;100.00;101776.81;5053656;28;20124;-76
2024/01/24 09:54:05;;;;;;;26.98;7.28;;;;;;;11.14;100.00;101764.50;5035675;28;20489;-76
2024/01/24 09:56:38;;;;;;;23.45;6.28;;;;;;;11.22;100.00;101787.63;5053392;28;20032;-76
2024/01/24 09:59:04;;;;;;;27.60;7.75;;;;;;;11.19;100.00;101814.78;5054138;28;20025;-76
2024/01/24 10:01:38;;;;;;;20.67;6.75;;;;;;;11.16;100.00;101796.44;5053572;28;20046;-76
2024/01/24 10:04:04;;;;;;;46.83;7.05;;;;;;;11.15;100.00;101797.47;5053420;28;20025;-75
2024/01/24 10:06:29;;;;;;;27.25;5.80;;;;;;;11.15;100.00;101809.00;5035666;28;20035;-75
2024/01/24 10:08:56;;;;;;;24.80;5.65;;;;;;;11.19;100.00;101814.78;5053431;28;20033;-76
2024/01/24 10:11:21;;;;;;;26.35;6.53;;;;;;;11.23;100.00;101817.91;5035380;28;20145;-75
2024/01/24 10:13:47;;;;;;;25.02;5.68;;;;;;;11.35;100.00;101824.41;5053309;28;20115;-76
2024/01/24 10:16:12;;;;;;;25.13;6.07;;;;;;;11.39;100.00;101822.97;5053133;28;20039;-74
2024/01/24 10:18:38;;;;;;;19.35;6.32;;;;;;;11.49;100.00;101818.91;5053045;28;20033;-74
2024/01/24 10:21:05;;;;;;;27.23;6.38;;;;;;;11.53;100.00;101831.91;5035229;28;20090;-74
2024/01/24 10:23:31;;;;;;;25.67;7.30;;;;;;;11.68;100.00;101846.88;5052999;28;20029;-73
2024/01/24 10:25:57;;;;;;;23.35;6.35;;;;;;;11.85;100.00;101842.03;5035168;28;20040;-74
2024/01/24 10:28:23;;;;;;;32.25;7.60;;;;;;;11.96;100.00;101838.00;5035014;28;20037;-73
2024/01/24 10:30:51;;;;;;;27.52;7.80;;;;;;;11.96;100.00;101819.22;5052936;28;20060;-75
2024/01/24 10:33:17;;;;;;;27.77;7.10;;;;;;;11.91;100.00;101835.91;5035089;28;20037;-76
2024/01/24 10:35:43;;;;;;;20.75;5.97;;;;;;;11.69;100.00;101845.84;5051903;28;20024;-73
2024/01/24 10:38:12;;;;;;;26.70;7.15;;;;;;;11.46;100.00;101846.09;5052718;28;20040;-75
2024/01/24 10:40:41;;;;;;;30.02;6.93;;;;;;;11.43;100.00;101870.59;5044846;28;20078;-76
2024/01/24 10:43:13;;;;;;;35.85;6.82;;;;;;;11.46;100.00;101885.44;5034968;28;20028;-76
2024/01/24 10:45:44;;;;;;;23.13;6.05;;;;;;;11.40;100.00;101862.94;5052803;28;20025;-75
2024/01/24 10:48:10;;;;;;;25.55;7.47;;;;;;;11.30;100.00;101865.16;5052693;28;20104;-74
2024/01/24 10:50:40;;;;;;;23.95;5.72;;;;;;;11.22;100.00;101849.19;5052788;28;20104;-76
2024/01/24 10:53:06;;;;;;;34.92;8.65;;;;;;;11.29;100.00;101871.53;5052696;28;20057;-76
2024/01/24 10:55:33;;;;;;;21.88;6.63;;;;;;;11.31;100.00;101876.69;5052643;28;20021;-76
2024/01/24 10:57:58;;;;;;;27.42;7.20;;;;;;;11.33;100.00;101896.06;5034700;28;20469;-74
2024/01/24 11:00:25;;;;;;;30.40;7.22;;;;;;;11.46;100.00;101891.63;5034917;28;20036;-76
2024/01/24 11:02:54;;;;;;;27.90;5.95;;;;;;;11.58;100.00;101909.88;5052698;28;20420;-76
2024/01/24 11:05:26;;;;;;;19.75;5.95;;;;;;;11.47;100.00;101917.38;5052622;28;20025;-75